Airfield :
LOGIN :

Register | Disclaimer

   EN    FR    IT 

 










Legend :    VFR   Marginal VFR   IFR   Intensive IFR   Very Intensive IFR
Visi :
Ceiling :
>= 8 km
>= 3000ft
5 to 8 km
1000 to 3000 ft
1500m to 5 km
500 to 1000 ft
800 to 1500m
200 to 500 ft
< 800m
< 200 ft
Symbols :   Thunderstorms  Fog  Heavy snow  Heavy precipitations  Wind > 20 kt
SIGMETs :     Misc.  Thunderstorms  Icing  Turbulence  Mountain Waves  Volcanic Ashes







- Airport Elevation : 0 ft


ENSL - Sleipner A Platform

CURRENT METAR :
  • 150750Z AUTO 29058KT 7000NDV -SHRA BKN035/// 11/05 Q1008 W11/S7

EXPIRED METARs :
  • 150720Z AUTO 29052KT 9999NDV BKN027/// 12/04 Q1008 W11/S6
  • 150650Z AUTO 28052KT 9999NDV BKN034/// 12/06 Q1008 W11/S6
  • 150620Z AUTO 28048KT 9999NDV BKN030/// BKN058/// 12/05 Q1008 W11/S6
  • 150550Z AUTO 28049G59KT 9999NDV BKN032/// 12/04 Q1008 W11/S6
  • 150520Z AUTO 29050KT 9999NDV BKN036/// 12/06 Q1008 W11/S6

Expired Forecast.
No reported NOTAMs for that airfield.



MET'MAP, your aeronautical weather chart ! - Copyright ORBIFLY December 2007 - Disclaimer

ORBIFLY MET'MAP TEAM :

Programming & Development : Alexandra Zaïnal
Concept & Development : Baudouin d'Aumeries
Co-Development & Prog : Marc-Olivier Méhu
Technical & hardware support : Manuel Goepfert

Contact : metmap@orbifly.com




SOURCES & CREDITS :

   NOAA